createdAt,value
2022-08-05T00:00:32.547Z,6.50
2022-08-05T00:03:15.622Z,7.40
2022-08-05T00:06:06.585Z,6.25
2022-08-05T00:08:41.846Z,8.27
2022-08-05T00:11:20.584Z,7.03
2022-08-05T00:14:01.187Z,8.38
2022-08-05T00:16:36.029Z,7.15
2022-08-05T00:19:12.088Z,8.38
2022-08-05T00:21:44.856Z,6.47
2022-08-05T00:24:19.179Z,9.07
2022-08-05T00:26:57.343Z,10.40
2022-08-05T00:29:37.813Z,6.55
2022-08-05T00:32:14.951Z,6.82
2022-08-05T00:35:03.982Z,7.85
2022-08-05T00:37:53.333Z,7.65
2022-08-05T00:40:29.454Z,9.60
2022-08-05T00:43:07.690Z,6.68
2022-08-05T00:45:43.704Z,7.32
2022-08-05T00:48:27.756Z,10.27
2022-08-05T00:51:50.789Z,8.55
2022-08-05T00:54:04.289Z,9.15
2022-08-05T00:56:35.907Z,9.35
2022-08-05T00:59:10.409Z,7.07
2022-08-05T01:01:50.842Z,9.07
2022-08-05T01:04:26.735Z,8.88
2022-08-05T01:07:05.109Z,10.77
2022-08-05T01:09:38.127Z,8.05
2022-08-05T01:12:18.789Z,9.23
2022-08-05T01:14:56.884Z,6.65
2022-08-05T01:17:40.264Z,11.98
2022-08-05T01:20:27.763Z,12.10
2022-08-05T01:23:22.901Z,15.15
2022-08-05T01:26:16.105Z,12.20
2022-08-05T01:28:55.605Z,13.52
2022-08-05T01:31:33.014Z,13.43
2022-08-05T01:34:26.701Z,13.05
2022-08-05T01:37:24.611Z,11.57
2022-08-05T01:40:01.304Z,13.18
2022-08-05T01:42:35.982Z,11.80
2022-08-05T01:45:12.037Z,13.02
2022-08-05T01:47:54.588Z,13.68
2022-08-05T01:50:37.091Z,16.67
2022-08-05T01:53:57.922Z,12.93
2022-08-05T01:56:12.975Z,16.05
2022-08-05T01:58:47.027Z,11.77
2022-08-05T02:01:24.614Z,12.77
2022-08-05T02:04:03.771Z,12.95
2022-08-05T02:06:38.306Z,13.75
2022-08-05T02:09:11.144Z,11.73
2022-08-05T02:11:52.653Z,9.05
2022-08-05T02:14:37.071Z,10.65
2022-08-05T02:18:28.245Z,11.60
2022-08-05T02:20:20.466Z,11.85
2022-08-05T02:23:03.335Z,10.98
2022-08-05T02:25:49.024Z,9.23
2022-08-05T02:28:32.967Z,14.55
2022-08-05T02:31:16.516Z,11.55
2022-08-05T02:33:58.372Z,9.68
2022-08-05T02:36:39.316Z,10.43
2022-08-05T02:39:12.344Z,11.20
2022-08-05T02:41:57.976Z,9.20
2022-08-05T02:44:37.194Z,10.95
2022-08-05T02:47:12.165Z,17.20
2022-08-05T02:49:49.621Z,8.52
2022-08-05T02:52:30.659Z,8.52
2022-08-05T02:55:05.209Z,9.05
2022-08-05T02:58:12.350Z,8.73
2022-08-05T03:00:41.984Z,15.20
2022-08-05T03:03:23.590Z,11.98
2022-08-05T03:06:55.815Z,9.38
2022-08-05T03:08:53.572Z,13.38
2022-08-05T03:11:53.215Z,9.77
2022-08-05T03:14:20.872Z,13.18
2022-08-05T03:16:53.528Z,5.95
2022-08-05T03:19:34.308Z,11.25
2022-08-05T03:22:16.669Z,14.32
2022-08-05T03:24:53.671Z,8.98
2022-08-05T03:27:29.808Z,10.38
2022-08-05T03:30:18.720Z,8.40
2022-08-05T03:32:53.842Z,8.27
2022-08-05T03:35:27.352Z,12.50
2022-08-05T03:38:03.512Z,9.23
2022-08-05T03:40:35.930Z,9.63
2022-08-05T03:43:58.531Z,12.15
2022-08-05T03:46:00.170Z,9.50
2022-08-05T03:48:35.233Z,7.68
2022-08-05T03:52:38.562Z,8.80
2022-08-05T03:55:50.265Z,8.30
2022-08-05T03:57:16.865Z,8.65
2022-08-05T03:59:57.024Z,7.95
2022-08-05T04:02:38.797Z,10.05
2022-08-05T04:05:18.201Z,9.60
2022-08-05T04:07:58.129Z,9.80
2022-08-05T04:10:37.936Z,7.50
2022-08-05T04:13:10.943Z,5.82
2022-08-05T04:16:03.362Z,10.68
2022-08-05T04:18:35.980Z,9.65
2022-08-05T04:21:10.952Z,9.90
2022-08-05T04:24:00.267Z,9.40
2022-08-05T04:26:38.882Z,9.70
2022-08-05T04:29:11.185Z,7.40
2022-08-05T04:31:43.183Z,7.60
2022-08-05T04:34:31.997Z,10.40
2022-08-05T04:37:06.361Z,11.80
2022-08-05T04:39:40.040Z,6.78
2022-08-05T04:42:15.233Z,7.30
2022-08-05T04:44:47.543Z,10.15
2022-08-05T04:47:20.428Z,11.40
2022-08-05T04:50:03.059Z,10.43
2022-08-05T04:52:43.549Z,6.10
2022-08-05T04:55:17.351Z,9.07
2022-08-05T04:58:13.513Z,6.30
2022-08-05T05:00:46.374Z,11.82
2022-08-05T05:03:22.762Z,13.93
2022-08-05T05:06:38.943Z,8.63
2022-08-05T05:08:50.130Z,8.38
2022-08-05T05:11:23.091Z,8.60
2022-08-05T05:14:16.884Z,7.32
2022-08-05T05:17:00.490Z,8.95
2022-08-05T05:19:36.986Z,9.55
2022-08-05T05:22:23.636Z,8.57
2022-08-05T05:25:00.231Z,9.43
2022-08-05T05:27:55.699Z,12.23
2022-08-05T05:30:33.412Z,11.65
2022-08-05T05:33:15.934Z,7.70
2022-08-05T05:35:49.904Z,10.27
2022-08-05T05:41:16.428Z,8.73
2022-08-05T05:43:58.400Z,9.95
2022-08-05T05:46:35.033Z,10.10
2022-08-05T05:49:22.504Z,9.75
2022-08-05T05:51:54.953Z,10.70
2022-08-05T05:54:49.772Z,8.82
2022-08-05T05:57:19.544Z,8.80
2022-08-05T05:59:52.445Z,8.77
2022-08-05T06:02:37.361Z,9.32
2022-08-05T06:05:16.785Z,9.52
2022-08-05T06:08:12.283Z,9.75
2022-08-05T06:10:52.587Z,12.18
2022-08-05T06:13:25.260Z,8.27
2022-08-05T06:16:30.495Z,9.45
2022-08-05T06:18:53.732Z,9.68
2022-08-05T06:21:37.000Z,10.98
2022-08-05T06:24:12.431Z,10.05
2022-08-05T06:26:51.270Z,9.23
2022-08-05T06:29:48.864Z,9.63
2022-08-05T06:32:25.343Z,8.02
2022-08-05T06:35:05.863Z,9.20
2022-08-05T06:37:57.342Z,7.57
2022-08-05T06:40:32.428Z,7.00
2022-08-05T06:43:05.372Z,5.72
2022-08-05T06:46:07.277Z,11.07
2022-08-05T06:48:56.279Z,7.82
2022-08-05T06:51:42.447Z,6.40
2022-08-05T06:54:19.086Z,8.88
2022-08-05T06:56:55.092Z,12.35
2022-08-05T06:59:48.507Z,8.60
2022-08-05T07:02:30.805Z,5.70
2022-08-05T07:05:03.251Z,6.95
2022-08-05T07:07:49.285Z,8.82
2022-08-05T07:10:32.375Z,9.55
2022-08-05T07:13:17.287Z,7.28
2022-08-05T07:17:56.597Z,7.55
2022-08-05T07:19:16.078Z,9.40
2022-08-05T07:22:08.075Z,7.22
2022-08-05T07:24:44.021Z,7.47
2022-08-05T07:27:58.694Z,9.43
2022-08-05T07:30:24.670Z,10.10
2022-08-05T07:33:05.499Z,7.13
2022-08-05T07:36:03.088Z,8.93
2022-08-05T07:38:43.561Z,7.18
2022-08-05T07:42:12.864Z,8.43
2022-08-05T07:44:19.405Z,5.72
2022-08-05T07:46:52.519Z,9.57
2022-08-05T07:49:26.719Z,6.40
2022-08-05T07:51:59.237Z,6.68
2022-08-05T07:54:41.374Z,8.57
2022-08-05T07:57:50.613Z,9.70
2022-08-05T08:00:29.850Z,9.15
2022-08-05T08:03:14.921Z,8.07
2022-08-05T08:05:58.625Z,8.52
2022-08-05T08:12:14.593Z,8.43
2022-08-05T08:14:53.321Z,8.95
2022-08-05T08:17:28.845Z,5.65
2022-08-05T08:20:21.888Z,9.25
2022-08-05T08:23:00.104Z,7.40
2022-08-05T08:26:00.146Z,5.82
2022-08-05T08:28:36.223Z,5.70
2022-08-05T08:31:22.177Z,7.78
2022-08-05T08:34:33.290Z,6.63
2022-08-05T08:37:28.157Z,6.82
2022-08-05T08:40:01.399Z,6.20
2022-08-05T08:42:52.588Z,7.68
2022-08-05T08:45:29.762Z,9.45
2022-08-05T08:48:23.921Z,8.43
2022-08-05T08:51:04.495Z,8.45
2022-08-05T08:53:54.744Z,6.32
2022-08-05T08:56:27.316Z,5.82
2022-08-05T08:59:01.175Z,6.88
2022-08-05T09:01:43.503Z,7.57
2022-08-05T09:04:31.182Z,4.88
2022-08-05T09:07:10.777Z,9.55
2022-08-05T09:09:54.441Z,10.25
2022-08-05T09:12:27.407Z,6.20
2022-08-05T09:15:05.698Z,7.88
2022-08-05T09:17:42.422Z,6.95
2022-08-05T09:20:36.354Z,6.07
2022-08-05T09:23:19.484Z,7.53
2022-08-05T09:26:01.503Z,8.82
2022-08-05T09:28:37.048Z,6.13
2022-08-05T09:31:22.151Z,6.00
2022-08-05T09:34:06.548Z,6.65
2022-08-05T09:36:54.350Z,5.85
2022-08-05T09:39:44.690Z,5.95
2022-08-05T09:42:23.323Z,6.38
2022-08-05T09:45:17.208Z,4.57
2022-08-05T09:47:55.930Z,6.70
2022-08-05T09:50:44.492Z,5.07
2022-08-05T09:53:22.862Z,8.35
2022-08-05T09:56:11.360Z,7.47
2022-08-05T09:58:58.744Z,7.85
2022-08-05T10:01:33.922Z,7.05
2022-08-05T10:04:10.519Z,7.63
2022-08-05T10:06:54.873Z,7.63
2022-08-05T10:09:45.468Z,7.18
2022-08-05T10:12:33.630Z,7.70
2022-08-05T10:15:28.464Z,5.45
2022-08-05T10:18:17.429Z,5.45
2022-08-05T10:20:51.723Z,6.55
2022-08-05T10:23:55.706Z,8.77
2022-08-05T10:26:24.160Z,7.05
2022-08-05T10:28:59.477Z,5.25
2022-08-05T10:32:53.683Z,5.93
2022-08-05T10:34:25.820Z,7.95
2022-08-05T10:37:03.007Z,9.43
2022-08-05T10:39:59.347Z,12.20
2022-08-05T10:42:38.671Z,7.63
2022-08-05T10:45:23.928Z,12.75
2022-08-05T10:48:57.124Z,10.10
2022-08-05T10:51:48.675Z,7.30
2022-08-05T10:54:56.083Z,8.00
2022-08-05T10:57:34.188Z,7.38
2022-08-05T11:00:32.663Z,11.35
2022-08-05T11:03:25.348Z,11.68
2022-08-05T11:06:15.406Z,11.60
2022-08-05T11:09:39.117Z,7.57
2022-08-05T11:12:50.802Z,5.80
2022-08-05T11:16:00.825Z,6.10
2022-08-05T11:18:38.445Z,7.90
2022-08-05T11:21:48.933Z,4.93
2022-08-05T11:24:30.860Z,6.97
2022-08-05T11:27:51.237Z,6.95
2022-08-05T11:30:28.593Z,5.15
2022-08-05T11:33:34.727Z,3.72
2022-08-05T11:36:34.679Z,6.47
2022-08-05T11:39:13.568Z,6.20
2022-08-05T11:42:02.437Z,4.88
2022-08-05T11:44:53.822Z,6.90
2022-08-05T11:47:49.963Z,7.38
2022-08-05T11:50:23.045Z,4.88
2022-08-05T11:52:58.687Z,5.82
2022-08-05T11:55:36.474Z,7.05
2022-08-05T11:58:12.027Z,5.82
2022-08-05T12:00:46.983Z,8.88
2022-08-05T12:03:31.613Z,6.25
2022-08-05T12:06:10.809Z,5.85
2022-08-05T12:08:51.053Z,6.63
2022-08-05T12:11:28.358Z,5.95
2022-08-05T12:14:13.395Z,4.97
2022-08-05T12:16:47.844Z,5.13
2022-08-05T12:20:25.692Z,5.40
2022-08-05T12:22:20.151Z,6.15
2022-08-05T12:24:56.426Z,5.85
2022-08-05T12:27:32.947Z,6.00
2022-08-05T12:30:08.623Z,5.63
2022-08-05T12:32:51.486Z,5.22
2022-08-05T12:35:37.250Z,6.00
2022-08-05T12:38:15.153Z,6.43
2022-08-05T12:40:47.645Z,8.10
2022-08-05T12:43:22.444Z,6.15
2022-08-05T12:45:57.066Z,3.88
2022-08-05T12:48:32.977Z,5.10
2022-08-05T12:52:12.686Z,3.35
2022-08-05T12:54:23.757Z,5.18
2022-08-05T12:57:01.305Z,4.95
2022-08-05T13:00:08.959Z,5.43
2022-08-05T13:02:30.552Z,5.63
2022-08-05T13:05:02.465Z,6.60
2022-08-05T13:10:36.124Z,4.60
2022-08-05T13:14:06.427Z,3.60
2022-08-05T13:16:20.102Z,4.13
2022-08-05T13:18:58.595Z,6.75
2022-08-05T13:21:38.171Z,3.45
2022-08-05T13:24:27.699Z,8.05
2022-08-05T13:27:17.219Z,6.68
2022-08-05T13:29:59.427Z,3.90
2022-08-05T13:32:50.289Z,4.32
2022-08-05T13:35:31.185Z,5.60
2022-08-05T13:38:05.087Z,6.25
2022-08-05T13:40:47.885Z,6.60
2022-08-05T13:43:45.304Z,5.63
2022-08-05T13:46:30.842Z,5.15
2022-08-05T13:49:11.811Z,4.75
2022-08-05T13:51:46.274Z,5.60
2022-08-05T13:54:25.067Z,6.32
2022-08-05T13:56:57.574Z,7.30
2022-08-05T13:59:31.923Z,4.45
2022-08-05T14:02:40.566Z,6.88
2022-08-05T14:06:26.396Z,4.18
2022-08-05T14:12:00.352Z,5.43
2022-08-05T14:14:42.759Z,5.05
2022-08-05T14:17:17.008Z,4.35
2022-08-05T14:19:55.166Z,6.18
2022-08-05T14:22:30.274Z,7.80
2022-08-05T14:25:06.191Z,5.93
2022-08-05T14:27:51.847Z,5.28
2022-08-05T14:30:28.150Z,6.63
2022-08-05T14:33:00.403Z,6.65
2022-08-05T14:35:36.333Z,5.97
2022-08-05T14:38:32.937Z,6.28
2022-08-05T14:41:06.479Z,5.95
2022-08-05T14:44:00.283Z,5.65
2022-08-05T14:46:36.364Z,8.00
2022-08-05T14:49:09.835Z,7.18
2022-08-05T14:51:43.425Z,6.93
2022-08-05T14:54:28.854Z,6.72
2022-08-05T14:57:05.268Z,5.97
2022-08-05T14:59:42.325Z,7.53
2022-08-05T15:02:17.869Z,5.47
2022-08-05T15:04:50.104Z,8.43
2022-08-05T15:08:06.059Z,7.15
2022-08-05T15:10:15.225Z,7.22
2022-08-05T15:13:00.278Z,7.22
2022-08-05T15:15:54.249Z,7.03
2022-08-05T15:18:31.544Z,6.65
2022-08-05T15:21:07.802Z,7.25
2022-08-05T15:23:40.776Z,6.55
2022-08-05T15:26:13.186Z,8.80
2022-08-05T15:28:45.965Z,9.32
2022-08-05T15:31:24.796Z,6.32
2022-08-05T15:34:31.429Z,6.82
2022-08-05T15:37:06.895Z,7.25
2022-08-05T15:41:04.708Z,5.22
2022-08-05T15:42:54.165Z,7.93
2022-08-05T15:45:38.934Z,9.32
2022-08-05T15:48:14.477Z,8.20
2022-08-05T15:50:51.129Z,9.48
2022-08-05T15:53:27.483Z,12.13
2022-08-05T15:56:14.245Z,7.82
2022-08-05T15:58:46.902Z,9.23
2022-08-05T16:01:20.466Z,11.07
2022-08-05T16:04:03.044Z,7.28
2022-08-05T16:06:38.884Z,6.72
2022-08-05T16:09:12.524Z,5.78
2022-08-05T16:11:52.634Z,7.63
2022-08-05T16:14:25.657Z,6.90
2022-08-05T16:16:58.407Z,10.57
2022-08-05T16:20:04.199Z,9.77
2022-08-05T16:22:27.781Z,7.10
2022-08-05T16:25:09.521Z,18.27
2022-08-05T16:28:01.002Z,8.05
2022-08-05T16:30:36.456Z,7.35
2022-08-05T16:33:08.996Z,8.88
2022-08-05T16:35:43.082Z,8.65
2022-08-05T16:38:25.192Z,8.77
2022-08-05T16:41:29.824Z,8.45
2022-08-05T16:43:56.556Z,10.38
2022-08-05T16:46:28.783Z,14.68
2022-08-05T16:49:01.544Z,10.63
2022-08-05T16:51:42.768Z,11.25
2022-08-05T16:54:31.825Z,11.27
2022-08-05T16:57:15.026Z,8.13
2022-08-05T17:00:03.086Z,10.07
2022-08-05T17:02:36.951Z,7.72
2022-08-05T17:05:11.831Z,12.98
2022-08-05T17:07:54.494Z,8.82
2022-08-05T17:10:30.821Z,8.40
2022-08-05T17:13:03.147Z,7.57
2022-08-05T17:15:48.794Z,6.03
2022-08-05T17:18:25.561Z,6.93
2022-08-05T17:20:58.378Z,5.30
2022-08-05T17:24:05.925Z,7.95
2022-08-05T17:26:25.908Z,3.83
2022-08-05T17:28:58.273Z,7.13
2022-08-05T17:31:56.943Z,4.03
2022-08-05T17:34:29.470Z,3.38
2022-08-05T17:37:04.629Z,3.30
2022-08-05T17:39:56.117Z,2.70
2022-08-05T17:42:35.909Z,3.45
2022-08-05T17:45:20.891Z,1.60
2022-08-05T17:51:21.531Z,2.28
2022-08-05T17:53:55.107Z,2.55
2022-08-05T17:56:28.459Z,3.13
2022-08-05T17:59:04.677Z,3.22
2022-08-05T18:01:49.627Z,3.58
2022-08-05T18:04:27.887Z,3.63
2022-08-05T18:07:03.747Z,3.00
2022-08-05T18:10:00.313Z,2.83
2022-08-05T18:12:32.317Z,2.53
2022-08-05T18:15:10.778Z,1.92
2022-08-05T18:17:59.135Z,3.63
2022-08-05T18:20:35.135Z,2.35
2022-08-05T18:23:12.040Z,2.35
2022-08-05T18:25:45.774Z,2.00
2022-08-05T18:28:18.101Z,2.80
2022-08-05T18:30:57.766Z,4.45
2022-08-05T18:33:43.189Z,3.30
2022-08-05T18:36:20.572Z,3.03
2022-08-05T18:39:00.870Z,2.53
2022-08-05T18:41:56.163Z,1.08
2022-08-05T18:44:32.985Z,2.30
2022-08-05T18:47:12.081Z,2.17
2022-08-05T18:50:00.263Z,1.73
2022-08-05T18:52:38.468Z,3.22
2022-08-05T18:55:14.333Z,2.90
2022-08-05T18:57:53.492Z,1.90
2022-08-05T19:00:29.503Z,1.65
2022-08-05T19:03:06.261Z,1.88
2022-08-05T19:06:13.250Z,2.80
2022-08-05T19:08:32.067Z,2.13
2022-08-05T19:11:07.298Z,2.05
2022-08-05T19:13:40.752Z,2.30
2022-08-05T19:16:25.281Z,2.15
2022-08-05T19:19:05.763Z,1.80
2022-08-05T19:21:38.157Z,1.83
2022-08-05T19:24:12.506Z,1.73
2022-08-05T19:26:55.175Z,3.00
2022-08-05T19:29:36.514Z,3.28
2022-08-05T19:32:11.343Z,2.65
2022-08-05T19:34:54.616Z,2.38
2022-08-05T19:37:47.392Z,3.42
2022-08-05T19:40:24.171Z,2.05
2022-08-05T19:43:00.924Z,3.85
2022-08-05T19:45:39.447Z,3.13
2022-08-05T19:48:28.570Z,3.80
2022-08-05T19:51:04.882Z,2.00
2022-08-05T19:54:04.831Z,3.58
2022-08-05T19:56:34.818Z,3.50
2022-08-05T19:59:59.332Z,3.05
2022-08-05T20:02:39.678Z,5.03
2022-08-05T20:05:16.455Z,5.07
2022-08-05T20:07:59.897Z,2.40
2022-08-05T20:10:43.376Z,3.55
2022-08-05T20:13:16.854Z,2.72
2022-08-05T20:15:56.155Z,2.67
2022-08-05T20:18:36.294Z,2.60
2022-08-05T20:21:12.588Z,4.80
2022-08-05T20:23:53.283Z,2.95
2022-08-05T20:26:28.026Z,2.38
2022-08-05T20:29:01.596Z,3.15
2022-08-05T20:31:42.208Z,3.45
2022-08-05T20:34:23.196Z,3.00
2022-08-05T20:39:55.639Z,2.67
2022-08-05T20:42:30.552Z,2.45
2022-08-05T20:45:05.267Z,3.60
2022-08-05T20:47:40.075Z,2.83
2022-08-05T20:50:14.147Z,4.45
2022-08-05T20:52:48.255Z,2.97
2022-08-05T20:55:56.219Z,2.25
2022-08-05T20:58:21.687Z,3.22
2022-08-05T21:00:56.857Z,2.38
2022-08-05T21:03:30.566Z,3.47
2022-08-05T21:06:27.908Z,6.32
2022-08-05T21:08:59.299Z,3.90
2022-08-05T21:12:10.757Z,3.33
2022-08-05T21:14:42.688Z,6.13
2022-08-05T21:17:15.809Z,7.03
2022-08-05T21:19:50.382Z,4.82
2022-08-05T21:22:23.999Z,4.03
2022-08-05T21:24:56.800Z,3.33
2022-08-05T21:27:38.811Z,3.38
2022-08-05T21:30:17.363Z,2.40
2022-08-05T21:32:49.562Z,5.82
2022-08-05T21:35:30.187Z,3.85
2022-08-05T21:38:14.811Z,3.55
2022-08-05T21:40:48.538Z,4.00
2022-08-05T21:43:24.498Z,6.55
2022-08-05T21:46:00.096Z,4.43
2022-08-05T21:48:32.674Z,5.45
2022-08-05T21:52:16.439Z,5.43
2022-08-05T21:54:03.588Z,3.20
2022-08-05T21:56:35.630Z,3.60
2022-08-05T21:59:22.467Z,3.83
2022-08-05T22:01:55.735Z,4.63
2022-08-05T22:04:28.015Z,3.50
2022-08-05T22:06:59.938Z,7.70
2022-08-05T22:09:45.809Z,3.95
2022-08-05T22:12:18.051Z,3.90
2022-08-05T22:15:01.347Z,4.93
2022-08-05T22:17:35.018Z,4.47
2022-08-05T22:20:21.307Z,5.47
2022-08-05T22:23:17.219Z,4.00
2022-08-05T22:26:11.385Z,6.82
2022-08-05T22:28:43.938Z,8.50
2022-08-05T22:31:20.629Z,5.45
2022-08-05T22:33:55.543Z,4.95
2022-08-05T22:36:29.156Z,4.57
2022-08-05T22:39:04.289Z,4.63
2022-08-05T22:42:10.738Z,6.85
2022-08-05T22:44:36.047Z,3.97
2022-08-05T22:47:11.894Z,3.45
2022-08-05T22:50:19.514Z,3.28
2022-08-05T22:52:38.069Z,6.15
2022-08-05T22:55:18.378Z,3.40
2022-08-05T22:57:52.125Z,2.50
2022-08-05T23:00:26.519Z,4.10
2022-08-05T23:03:04.183Z,6.13
2022-08-05T23:05:42.274Z,3.05
2022-08-05T23:08:52.360Z,2.85
2022-08-05T23:11:24.064Z,4.45
2022-08-05T23:13:56.472Z,3.13
2022-08-05T23:16:40.215Z,4.53
2022-08-05T23:19:41.809Z,4.65
2022-08-05T23:22:39.046Z,3.17
2022-08-05T23:25:12.453Z,3.60
2022-08-05T23:28:00.335Z,5.03
2022-08-05T23:30:32.944Z,3.05
2022-08-05T23:33:22.334Z,2.50
2022-08-05T23:36:01.614Z,3.65
2022-08-05T23:38:33.273Z,3.22
2022-08-05T23:41:09.223Z,6.45
2022-08-05T23:44:06.520Z,5.85
2022-08-05T23:46:32.655Z,6.03
2022-08-05T23:49:16.466Z,1.80
2022-08-05T23:52:09.262Z,3.60
2022-08-05T23:54:41.009Z,2.20
2022-08-05T23:57:12.991Z,3.88
